Terminal Aerodrome Forecast
Issued by NWS Charleston, WV

Home | Current Version | Previous Version | Text Only | Print | Product List | Glossary On
Versions: 1 2 3 4 5 6 7 8 9 10 11 12 13 14 15 16 17 18 19 20 21 22 23 24 25 26
000
FTUS41 KRLX 211134
TAFCRW
TAF
KCRW 211134Z 2112/2212 00000KT 1/4SM FG VV001
     FM211400 00000KT 4SM BR BKN002
     FM211500 03003KT P6SM SCT040
     FM220300 00000KT P6SM SKC
     FM220800 00000KT 1/2SM FG VV001=

USA.gov is the U.S. government's official web portal to all federal, state and local government web resources and services.